sensor_id;sensor_type;location;lat;lon;timestamp;P1;durP1;ratioP1;P2;durP2;ratioP2
81648;SDS011;71057;51.436;6.768;2024-01-07T00:02:06;20.77;;;11.15;;
81648;SDS011;71057;51.436;6.768;2024-01-07T00:04:31;19.73;;;10.20;;
81648;SDS011;71057;51.436;6.768;2024-01-07T00:06:56;16.63;;;8.40;;
81648;SDS011;71057;51.436;6.768;2024-01-07T00:09:21;19.73;;;10.53;;
81648;SDS011;71057;51.436;6.768;2024-01-07T00:11:46;19.07;;;11.00;;
81648;SDS011;71057;51.436;6.768;2024-01-07T00:14:12;21.97;;;11.53;;
81648;SDS011;71057;51.436;6.768;2024-01-07T00:16:37;21.73;;;10.57;;
81648;SDS011;71057;51.436;6.768;2024-01-07T00:19:02;15.87;;;9.30;;
81648;SDS011;71057;51.436;6.768;2024-01-07T00:21:27;20.93;;;11.23;;
81648;SDS011;71057;51.436;6.768;2024-01-07T00:23:53;22.33;;;12.38;;
81648;SDS011;71057;51.436;6.768;2024-01-07T00:26:18;21.43;;;12.40;;
81648;SDS011;71057;51.436;6.768;2024-01-07T00:28:44;23.47;;;12.40;;
81648;SDS011;71057;51.436;6.768;2024-01-07T00:31:11;22.03;;;12.53;;
81648;SDS011;71057;51.436;6.768;2024-01-07T00:33:36;20.67;;;11.27;;
81648;SDS011;71057;51.436;6.768;2024-01-07T00:36:02;16.13;;;9.70;;
81648;SDS011;71057;51.436;6.768;2024-01-07T00:38:27;17.45;;;9.77;;
81648;SDS011;71057;51.436;6.768;2024-01-07T00:40:53;17.50;;;10.10;;
81648;SDS011;71057;51.436;6.768;2024-01-07T00:43:18;17.63;;;10.40;;
81648;SDS011;71057;51.436;6.768;2024-01-07T00:45:43;17.48;;;9.13;;
81648;SDS011;71057;51.436;6.768;2024-01-07T00:48:08;13.97;;;8.17;;
81648;SDS011;71057;51.436;6.768;2024-01-07T00:50:34;16.20;;;9.30;;
81648;SDS011;71057;51.436;6.768;2024-01-07T00:52:59;15.60;;;9.00;;
81648;SDS011;71057;51.436;6.768;2024-01-07T00:55:24;18.83;;;10.60;;
81648;SDS011;71057;51.436;6.768;2024-01-07T00:57:49;15.67;;;8.67;;
81648;SDS011;71057;51.436;6.768;2024-01-07T01:00:15;16.48;;;11.68;;
81648;SDS011;71057;51.436;6.768;2024-01-07T01:02:40;14.35;;;8.80;;
81648;SDS011;71057;51.436;6.768;2024-01-07T01:05:06;15.83;;;9.33;;
81648;SDS011;71057;51.436;6.768;2024-01-07T01:07:31;16.17;;;9.20;;
81648;SDS011;71057;51.436;6.768;2024-01-07T01:09:56;17.97;;;11.00;;
81648;SDS011;71057;51.436;6.768;2024-01-07T01:12:21;15.30;;;10.37;;
81648;SDS011;71057;51.436;6.768;2024-01-07T01:14:46;12.07;;;8.20;;
81648;SDS011;71057;51.436;6.768;2024-01-07T01:17:12;14.20;;;9.23;;
81648;SDS011;71057;51.436;6.768;2024-01-07T01:19:37;13.53;;;7.63;;
81648;SDS011;71057;51.436;6.768;2024-01-07T01:22:02;13.97;;;8.50;;
81648;SDS011;71057;51.436;6.768;2024-01-07T01:24:27;14.67;;;8.27;;
81648;SDS011;71057;51.436;6.768;2024-01-07T01:26:52;13.43;;;7.93;;
81648;SDS011;71057;51.436;6.768;2024-01-07T01:29:17;12.50;;;8.00;;
81648;SDS011;71057;51.436;6.768;2024-01-07T01:31:43;14.17;;;8.10;;
81648;SDS011;71057;51.436;6.768;2024-01-07T01:34:08;11.70;;;7.77;;
81648;SDS011;71057;51.436;6.768;2024-01-07T01:36:33;14.05;;;8.63;;
81648;SDS011;71057;51.436;6.768;2024-01-07T01:38:58;12.53;;;8.07;;
81648;SDS011;71057;51.436;6.768;2024-01-07T01:41:23;13.73;;;8.83;;
81648;SDS011;71057;51.436;6.768;2024-01-07T01:43:49;13.93;;;8.27;;
81648;SDS011;71057;51.436;6.768;2024-01-07T01:46:14;13.20;;;7.47;;
81648;SDS011;71057;51.436;6.768;2024-01-07T01:48:39;14.53;;;8.90;;
81648;SDS011;71057;51.436;6.768;2024-01-07T01:51:04;17.10;;;8.68;;
81648;SDS011;71057;51.436;6.768;2024-01-07T01:53:30;15.02;;;9.18;;
81648;SDS011;71057;51.436;6.768;2024-01-07T01:55:56;13.83;;;9.03;;
81648;SDS011;71057;51.436;6.768;2024-01-07T01:58:22;16.55;;;9.95;;
81648;SDS011;71057;51.436;6.768;2024-01-07T02:00:48;16.13;;;9.43;;
81648;SDS011;71057;51.436;6.768;2024-01-07T02:03:13;14.33;;;9.53;;
81648;SDS011;71057;51.436;6.768;2024-01-07T02:05:38;16.67;;;10.33;;
81648;SDS011;71057;51.436;6.768;2024-01-07T02:08:03;16.50;;;9.43;;
81648;SDS011;71057;51.436;6.768;2024-01-07T02:10:29;17.33;;;10.48;;
81648;SDS011;71057;51.436;6.768;2024-01-07T02:13:01;15.95;;;9.63;;
81648;SDS011;71057;51.436;6.768;2024-01-07T02:15:26;17.97;;;10.07;;
81648;SDS011;71057;51.436;6.768;2024-01-07T02:17:51;17.73;;;10.63;;
81648;SDS011;71057;51.436;6.768;2024-01-07T02:20:16;17.63;;;10.43;;
81648;SDS011;71057;51.436;6.768;2024-01-07T02:22:42;19.57;;;11.10;;
81648;SDS011;71057;51.436;6.768;2024-01-07T02:25:07;17.47;;;10.23;;
81648;SDS011;71057;51.436;6.768;2024-01-07T02:27:33;17.42;;;10.25;;
81648;SDS011;71057;51.436;6.768;2024-01-07T02:29:58;17.80;;;10.40;;
81648;SDS011;71057;51.436;6.768;2024-01-07T02:32:23;18.07;;;10.50;;
81648;SDS011;71057;51.436;6.768;2024-01-07T02:34:49;18.93;;;10.50;;
81648;SDS011;71057;51.436;6.768;2024-01-07T02:37:14;16.73;;;10.70;;
81648;SDS011;71057;51.436;6.768;2024-01-07T02:39:39;21.43;;;11.30;;
81648;SDS011;71057;51.436;6.768;2024-01-07T02:42:04;23.97;;;12.97;;
81648;SDS011;71057;51.436;6.768;2024-01-07T02:44:29;19.13;;;12.57;;
81648;SDS011;71057;51.436;6.768;2024-01-07T02:46:55;19.50;;;11.20;;
81648;SDS011;71057;51.436;6.768;2024-01-07T02:49:20;17.37;;;10.77;;
81648;SDS011;71057;51.436;6.768;2024-01-07T02:51:45;18.43;;;10.30;;
81648;SDS011;71057;51.436;6.768;2024-01-07T02:54:14;20.17;;;12.75;;
81648;SDS011;71057;51.436;6.768;2024-01-07T02:56:39;19.93;;;11.87;;
81648;SDS011;71057;51.436;6.768;2024-01-07T02:59:04;19.83;;;11.60;;
81648;SDS011;71057;51.436;6.768;2024-01-07T03:01:29;18.10;;;11.13;;
81648;SDS011;71057;51.436;6.768;2024-01-07T03:03:54;19.13;;;11.47;;
81648;SDS011;71057;51.436;6.768;2024-01-07T03:06:20;19.03;;;12.07;;
81648;SDS011;71057;51.436;6.768;2024-01-07T03:08:45;21.60;;;11.80;;
81648;SDS011;71057;51.436;6.768;2024-01-07T03:11:10;19.77;;;11.03;;
81648;SDS011;71057;51.436;6.768;2024-01-07T03:13:36;16.98;;;10.82;;
81648;SDS011;71057;51.436;6.768;2024-01-07T03:16:01;21.17;;;10.47;;
81648;SDS011;71057;51.436;6.768;2024-01-07T03:18:26;20.00;;;11.73;;
81648;SDS011;71057;51.436;6.768;2024-01-07T03:20:52;21.20;;;12.00;;
81648;SDS011;71057;51.436;6.768;2024-01-07T03:23:17;20.47;;;11.13;;
81648;SDS011;71057;51.436;6.768;2024-01-07T03:25:43;20.95;;;11.20;;
81648;SDS011;71057;51.436;6.768;2024-01-07T03:28:09;17.20;;;9.93;;
81648;SDS011;71057;51.436;6.768;2024-01-07T03:30:34;15.40;;;9.47;;
81648;SDS011;71057;51.436;6.768;2024-01-07T03:32:59;17.17;;;8.50;;
81648;SDS011;71057;51.436;6.768;2024-01-07T03:35:24;15.20;;;8.67;;
81648;SDS011;71057;51.436;6.768;2024-01-07T03:37:49;14.03;;;8.20;;
81648;SDS011;71057;51.436;6.768;2024-01-07T03:40:15;13.65;;;7.65;;
81648;SDS011;71057;51.436;6.768;2024-01-07T03:42:40;13.63;;;7.60;;
81648;SDS011;71057;51.436;6.768;2024-01-07T03:45:05;11.53;;;7.27;;
81648;SDS011;71057;51.436;6.768;2024-01-07T03:47:30;12.97;;;8.63;;
81648;SDS011;71057;51.436;6.768;2024-01-07T03:49:56;14.20;;;9.15;;
81648;SDS011;71057;51.436;6.768;2024-01-07T03:52:21;14.38;;;9.55;;
81648;SDS011;71057;51.436;6.768;2024-01-07T03:54:47;14.17;;;9.23;;
81648;SDS011;71057;51.436;6.768;2024-01-07T03:57:12;16.93;;;9.40;;
81648;SDS011;71057;51.436;6.768;2024-01-07T03:59:38;15.88;;;9.43;;
81648;SDS011;71057;51.436;6.768;2024-01-07T04:02:03;16.67;;;9.60;;
81648;SDS011;71057;51.436;6.768;2024-01-07T04:04:28;17.90;;;9.83;;
81648;SDS011;71057;51.436;6.768;2024-01-07T04:06:53;17.27;;;9.97;;
81648;SDS011;71057;51.436;6.768;2024-01-07T04:09:19;15.27;;;10.60;;
81648;SDS011;71057;51.436;6.768;2024-01-07T04:11:44;22.10;;;11.23;;
81648;SDS011;71057;51.436;6.768;2024-01-07T04:14:09;18.60;;;11.10;;
81648;SDS011;71057;51.436;6.768;2024-01-07T04:16:34;18.00;;;10.10;;
81648;SDS011;71057;51.436;6.768;2024-01-07T04:19:00;16.60;;;9.75;;
81648;SDS011;71057;51.436;6.768;2024-01-07T04:21:25;17.33;;;11.37;;
81648;SDS011;71057;51.436;6.768;2024-01-07T04:23:50;16.10;;;10.25;;
81648;SDS011;71057;51.436;6.768;2024-01-07T04:26:15;18.80;;;10.50;;
81648;SDS011;71057;51.436;6.768;2024-01-07T04:28:41;18.10;;;10.20;;
81648;SDS011;71057;51.436;6.768;2024-01-07T04:31:06;15.65;;;10.38;;
81648;SDS011;71057;51.436;6.768;2024-01-07T04:33:31;16.43;;;10.37;;
81648;SDS011;71057;51.436;6.768;2024-01-07T04:35:56;17.07;;;10.93;;
81648;SDS011;71057;51.436;6.768;2024-01-07T04:38:23;16.77;;;10.48;;
81648;SDS011;71057;51.436;6.768;2024-01-07T04:40:49;15.48;;;10.77;;
81648;SDS011;71057;51.436;6.768;2024-01-07T04:43:14;16.67;;;10.33;;
81648;SDS011;71057;51.436;6.768;2024-01-07T04:45:39;12.47;;;8.60;;
81648;SDS011;71057;51.436;6.768;2024-01-07T04:48:05;13.03;;;8.97;;
81648;SDS011;71057;51.436;6.768;2024-01-07T04:50:30;13.85;;;9.00;;
81648;SDS011;71057;51.436;6.768;2024-01-07T04:52:55;13.63;;;9.30;;
81648;SDS011;71057;51.436;6.768;2024-01-07T04:55:20;12.47;;;8.47;;
81648;SDS011;71057;51.436;6.768;2024-01-07T04:57:46;14.77;;;8.82;;
81648;SDS011;71057;51.436;6.768;2024-01-07T05:00:11;12.57;;;9.00;;
81648;SDS011;71057;51.436;6.768;2024-01-07T05:02:36;14.48;;;9.70;;
81648;SDS011;71057;51.436;6.768;2024-01-07T05:05:02;14.57;;;9.68;;
81648;SDS011;71057;51.436;6.768;2024-01-07T05:07:27;12.63;;;9.17;;
81648;SDS011;71057;51.436;6.768;2024-01-07T05:09:52;12.63;;;8.43;;
81648;SDS011;71057;51.436;6.768;2024-01-07T05:12:18;11.70;;;8.68;;
81648;SDS011;71057;51.436;6.768;2024-01-07T05:14:43;13.77;;;8.47;;
81648;SDS011;71057;51.436;6.768;2024-01-07T05:17:09;12.68;;;8.27;;
81648;SDS011;71057;51.436;6.768;2024-01-07T05:19:34;13.30;;;8.10;;
81648;SDS011;71057;51.436;6.768;2024-01-07T05:22:00;12.57;;;9.00;;
81648;SDS011;71057;51.436;6.768;2024-01-07T05:24:25;11.75;;;8.05;;
81648;SDS011;71057;51.436;6.768;2024-01-07T05:26:51;14.60;;;10.37;;
81648;SDS011;71057;51.436;6.768;2024-01-07T05:29:16;14.03;;;9.27;;
81648;SDS011;71057;51.436;6.768;2024-01-07T05:31:41;13.40;;;9.10;;
81648;SDS011;71057;51.436;6.768;2024-01-07T05:34:06;13.63;;;9.37;;
81648;SDS011;71057;51.436;6.768;2024-01-07T05:36:31;13.70;;;7.97;;
81648;SDS011;71057;51.436;6.768;2024-01-07T05:38:57;13.93;;;8.97;;
81648;SDS011;71057;51.436;6.768;2024-01-07T05:41:22;12.80;;;8.77;;
81648;SDS011;71057;51.436;6.768;2024-01-07T05:43:47;14.77;;;9.60;;
81648;SDS011;71057;51.436;6.768;2024-01-07T05:46:13;13.87;;;8.90;;
81648;SDS011;71057;51.436;6.768;2024-01-07T05:48:41;14.63;;;9.70;;
81648;SDS011;71057;51.436;6.768;2024-01-07T05:51:08;20.48;;;15.57;;
81648;SDS011;71057;51.436;6.768;2024-01-07T05:53:34;15.38;;;9.77;;
81648;SDS011;71057;51.436;6.768;2024-01-07T05:55:59;14.97;;;9.50;;
81648;SDS011;71057;51.436;6.768;2024-01-07T05:58:24;15.00;;;9.38;;
81648;SDS011;71057;51.436;6.768;2024-01-07T06:00:50;13.52;;;9.38;;
81648;SDS011;71057;51.436;6.768;2024-01-07T06:03:15;13.57;;;9.67;;
81648;SDS011;71057;51.436;6.768;2024-01-07T06:05:40;16.40;;;9.97;;
81648;SDS011;71057;51.436;6.768;2024-01-07T06:08:05;13.20;;;8.57;;
81648;SDS011;71057;51.436;6.768;2024-01-07T06:10:31;12.60;;;9.15;;
81648;SDS011;71057;51.436;6.768;2024-01-07T06:12:56;15.60;;;8.90;;
81648;SDS011;71057;51.436;6.768;2024-01-07T06:15:21;14.80;;;8.60;;
81648;SDS011;71057;51.436;6.768;2024-01-07T06:17:46;14.67;;;8.03;;
81648;SDS011;71057;51.436;6.768;2024-01-07T06:20:13;15.73;;;9.27;;
81648;SDS011;71057;51.436;6.768;2024-01-07T06:22:38;15.63;;;9.77;;
81648;SDS011;71057;51.436;6.768;2024-01-07T06:25:04;15.13;;;9.23;;
81648;SDS011;71057;51.436;6.768;2024-01-07T06:27:29;16.52;;;9.57;;
81648;SDS011;71057;51.436;6.768;2024-01-07T06:29:54;13.97;;;9.07;;
81648;SDS011;71057;51.436;6.768;2024-01-07T06:32:19;15.07;;;8.77;;
81648;SDS011;71057;51.436;6.768;2024-01-07T06:34:45;13.75;;;10.02;;
81648;SDS011;71057;51.436;6.768;2024-01-07T06:37:11;14.18;;;9.15;;
81648;SDS011;71057;51.436;6.768;2024-01-07T06:39:36;13.67;;;8.83;;
81648;SDS011;71057;51.436;6.768;2024-01-07T06:42:02;14.13;;;9.13;;
81648;SDS011;71057;51.436;6.768;2024-01-07T06:44:27;14.37;;;9.37;;
81648;SDS011;71057;51.436;6.768;2024-01-07T06:46:53;14.73;;;9.47;;
81648;SDS011;71057;51.436;6.768;2024-01-07T06:49:18;13.33;;;8.83;;
81648;SDS011;71057;51.436;6.768;2024-01-07T06:51:43;14.67;;;8.60;;
81648;SDS011;71057;51.436;6.768;2024-01-07T06:54:08;13.03;;;7.77;;
81648;SDS011;71057;51.436;6.768;2024-01-07T06:56:33;14.27;;;8.93;;
81648;SDS011;71057;51.436;6.768;2024-01-07T06:58:58;14.70;;;8.73;;
81648;SDS011;71057;51.436;6.768;2024-01-07T07:01:24;14.33;;;9.03;;
81648;SDS011;71057;51.436;6.768;2024-01-07T07:03:49;14.73;;;9.77;;
81648;SDS011;71057;51.436;6.768;2024-01-07T07:06:15;11.85;;;8.40;;
81648;SDS011;71057;51.436;6.768;2024-01-07T07:08:40;13.23;;;8.50;;
81648;SDS011;71057;51.436;6.768;2024-01-07T07:11:05;13.53;;;8.00;;
81648;SDS011;71057;51.436;6.768;2024-01-07T07:13:30;11.13;;;7.87;;
81648;SDS011;71057;51.436;6.768;2024-01-07T07:15:56;13.60;;;8.07;;
81648;SDS011;71057;51.436;6.768;2024-01-07T07:18:21;14.10;;;9.50;;
81648;SDS011;71057;51.436;6.768;2024-01-07T07:20:46;13.75;;;8.35;;
81648;SDS011;71057;51.436;6.768;2024-01-07T07:23:12;10.87;;;7.97;;
81648;SDS011;71057;51.436;6.768;2024-01-07T07:25:37;12.93;;;7.83;;
81648;SDS011;71057;51.436;6.768;2024-01-07T07:28:02;11.67;;;8.13;;
81648;SDS011;71057;51.436;6.768;2024-01-07T07:30:28;12.40;;;8.30;;
81648;SDS011;71057;51.436;6.768;2024-01-07T07:32:54;12.52;;;8.38;;
81648;SDS011;71057;51.436;6.768;2024-01-07T07:35:19;12.27;;;8.67;;
81648;SDS011;71057;51.436;6.768;2024-01-07T07:37:44;12.38;;;8.50;;
81648;SDS011;71057;51.436;6.768;2024-01-07T07:40:09;14.30;;;9.17;;
81648;SDS011;71057;51.436;6.768;2024-01-07T07:45:03;12.18;;;8.57;;
81648;SDS011;71057;51.436;6.768;2024-01-07T07:47:28;13.55;;;8.77;;
81648;SDS011;71057;51.436;6.768;2024-01-07T07:49:53;15.17;;;8.83;;
81648;SDS011;71057;51.436;6.768;2024-01-07T07:52:18;12.63;;;7.50;;
81648;SDS011;71057;51.436;6.768;2024-01-07T07:54:47;11.32;;;8.40;;
81648;SDS011;71057;51.436;6.768;2024-01-07T07:57:12;13.03;;;8.00;;
81648;SDS011;71057;51.436;6.768;2024-01-07T07:59:37;10.83;;;7.80;;
81648;SDS011;71057;51.436;6.768;2024-01-07T08:02:02;11.53;;;7.63;;
81648;SDS011;71057;51.436;6.768;2024-01-07T08:04:27;10.52;;;7.03;;
81648;SDS011;71057;51.436;6.768;2024-01-07T08:06:53;13.00;;;7.77;;
81648;SDS011;71057;51.436;6.768;2024-01-07T08:09:18;9.27;;;6.85;;
81648;SDS011;71057;51.436;6.768;2024-01-07T08:11:43;11.80;;;6.93;;
81648;SDS011;71057;51.436;6.768;2024-01-07T08:14:09;12.43;;;7.90;;
81648;SDS011;71057;51.436;6.768;2024-01-07T08:16:34;10.40;;;7.23;;
81648;SDS011;71057;51.436;6.768;2024-01-07T08:18:59;13.43;;;7.07;;
81648;SDS011;71057;51.436;6.768;2024-01-07T08:21:24;12.35;;;8.25;;
81648;SDS011;71057;51.436;6.768;2024-01-07T08:23:49;11.43;;;8.35;;
81648;SDS011;71057;51.436;6.768;2024-01-07T08:26:18;11.47;;;6.87;;
81648;SDS011;71057;51.436;6.768;2024-01-07T08:28:43;10.02;;;7.38;;
81648;SDS011;71057;51.436;6.768;2024-01-07T08:31:09;11.15;;;7.55;;
81648;SDS011;71057;51.436;6.768;2024-01-07T08:33:34;12.27;;;7.70;;
81648;SDS011;71057;51.436;6.768;2024-01-07T08:35:59;12.68;;;8.20;;
81648;SDS011;71057;51.436;6.768;2024-01-07T08:38:24;10.47;;;7.57;;
81648;SDS011;71057;51.436;6.768;2024-01-07T08:40:50;12.55;;;8.25;;
81648;SDS011;71057;51.436;6.768;2024-01-07T08:43:15;10.73;;;7.37;;
81648;SDS011;71057;51.436;6.768;2024-01-07T08:45:40;13.33;;;8.40;;
81648;SDS011;71057;51.436;6.768;2024-01-07T08:48:06;11.40;;;7.17;;
81648;SDS011;71057;51.436;6.768;2024-01-07T08:50:31;12.85;;;8.18;;
81648;SDS011;71057;51.436;6.768;2024-01-07T08:52:56;12.97;;;7.97;;
81648;SDS011;71057;51.436;6.768;2024-01-07T08:55:21;11.40;;;7.73;;
81648;SDS011;71057;51.436;6.768;2024-01-07T08:57:47;13.17;;;8.40;;
81648;SDS011;71057;51.436;6.768;2024-01-07T09:00:14;11.13;;;7.38;;
81648;SDS011;71057;51.436;6.768;2024-01-07T09:02:39;11.38;;;7.38;;
81648;SDS011;71057;51.436;6.768;2024-01-07T09:05:05;11.98;;;7.13;;
81648;SDS011;71057;51.436;6.768;2024-01-07T09:07:30;11.47;;;8.10;;
81648;SDS011;71057;51.436;6.768;2024-01-07T09:09:56;12.20;;;8.98;;
81648;SDS011;71057;51.436;6.768;2024-01-07T09:12:24;11.98;;;8.30;;
81648;SDS011;71057;51.436;6.768;2024-01-07T09:14:49;12.33;;;7.90;;
81648;SDS011;71057;51.436;6.768;2024-01-07T09:17:14;11.40;;;7.27;;
81648;SDS011;71057;51.436;6.768;2024-01-07T09:19:42;10.00;;;7.50;;
81648;SDS011;71057;51.436;6.768;2024-01-07T09:22:07;13.03;;;7.33;;
81648;SDS011;71057;51.436;6.768;2024-01-07T09:24:32;11.03;;;7.57;;
81648;SDS011;71057;51.436;6.768;2024-01-07T09:26:57;10.73;;;8.10;;
81648;SDS011;71057;51.436;6.768;2024-01-07T09:29:22;12.10;;;8.33;;
81648;SDS011;71057;51.436;6.768;2024-01-07T09:31:48;11.00;;;7.90;;
81648;SDS011;71057;51.436;6.768;2024-01-07T09:34:13;11.97;;;8.40;;
81648;SDS011;71057;51.436;6.768;2024-01-07T09:36:38;9.97;;;6.60;;
81648;SDS011;71057;51.436;6.768;2024-01-07T09:39:03;9.73;;;7.50;;
81648;SDS011;71057;51.436;6.768;2024-01-07T09:41:30;11.57;;;7.82;;
81648;SDS011;71057;51.436;6.768;2024-01-07T09:43:56;12.18;;;7.55;;
81648;SDS011;71057;51.436;6.768;2024-01-07T09:46:23;9.50;;;6.95;;
81648;SDS011;71057;51.436;6.768;2024-01-07T09:48:49;10.48;;;8.02;;
81648;SDS011;71057;51.436;6.768;2024-01-07T09:51:14;9.10;;;7.38;;
81648;SDS011;71057;51.436;6.768;2024-01-07T09:53:40;10.15;;;7.00;;
81648;SDS011;71057;51.436;6.768;2024-01-07T09:59:06;9.85;;;6.80;;
81648;SDS011;71057;51.436;6.768;2024-01-07T10:01:32;9.05;;;6.97;;
81648;SDS011;71057;51.436;6.768;2024-01-07T10:03:59;8.85;;;7.05;;
81648;SDS011;71057;51.436;6.768;2024-01-07T10:06:24;10.70;;;6.53;;
81648;SDS011;71057;51.436;6.768;2024-01-07T10:08:50;12.55;;;8.05;;
81648;SDS011;71057;51.436;6.768;2024-01-07T10:11:15;10.27;;;7.27;;
81648;SDS011;71057;51.436;6.768;2024-01-07T10:13:40;11.77;;;7.82;;
81648;SDS011;71057;51.436;6.768;2024-01-07T10:16:07;8.33;;;6.50;;
81648;SDS011;71057;51.436;6.768;2024-01-07T10:18:32;9.68;;;6.85;;
81648;SDS011;71057;51.436;6.768;2024-01-07T10:21:02;8.18;;;6.68;;
81648;SDS011;71057;51.436;6.768;2024-01-07T10:23:29;9.35;;;6.78;;
81648;SDS011;71057;51.436;6.768;2024-01-07T10:25:54;7.43;;;5.72;;
81648;SDS011;71057;51.436;6.768;2024-01-07T10:28:22;9.32;;;6.70;;
81648;SDS011;71057;51.436;6.768;2024-01-07T10:30:48;12.73;;;7.43;;
81648;SDS011;71057;51.436;6.768;2024-01-07T10:33:14;11.50;;;7.38;;
81648;SDS011;71057;51.436;6.768;2024-01-07T10:35:41;13.93;;;8.75;;
81648;SDS011;71057;51.436;6.768;2024-01-07T10:38:10;9.23;;;6.78;;
81648;SDS011;71057;51.436;6.768;2024-01-07T10:40:35;11.57;;;8.37;;
81648;SDS011;71057;51.436;6.768;2024-01-07T10:43:00;9.57;;;6.57;;
81648;SDS011;71057;51.436;6.768;2024-01-07T10:45:26;12.55;;;8.00;;
81648;SDS011;71057;51.436;6.768;2024-01-07T10:47:54;9.48;;;5.97;;
81648;SDS011;71057;51.436;6.768;2024-01-07T10:50:19;7.78;;;6.45;;
81648;SDS011;71057;51.436;6.768;2024-01-07T10:52:48;24.67;;;15.68;;
81648;SDS011;71057;51.436;6.768;2024-01-07T10:55:13;9.63;;;6.30;;
81648;SDS011;71057;51.436;6.768;2024-01-07T11:00:07;7.68;;;5.85;;
81648;SDS011;71057;51.436;6.768;2024-01-07T11:02:39;6.18;;;5.55;;
81648;SDS011;71057;51.436;6.768;2024-01-07T11:05:27;7.38;;;4.90;;
81648;SDS011;71057;51.436;6.768;2024-01-07T11:07:57;7.30;;;4.85;;
81648;SDS011;71057;51.436;6.768;2024-01-07T11:10:28;10.50;;;5.60;;
81648;SDS011;71057;51.436;6.768;2024-01-07T11:12:56;22.45;;;11.95;;
81648;SDS011;71057;51.436;6.768;2024-01-07T11:18:07;10.43;;;7.85;;
81648;SDS011;71057;51.436;6.768;2024-01-07T11:20:32;7.43;;;5.68;;
81648;SDS011;71057;51.436;6.768;2024-01-07T11:23:25;6.45;;;4.30;;
81648;SDS011;71057;51.436;6.768;2024-01-07T11:25:43;15.82;;;9.73;;
81648;SDS011;71057;51.436;6.768;2024-01-07T11:28:08;7.18;;;4.43;;
81648;SDS011;71057;51.436;6.768;2024-01-07T11:30:38;6.40;;;4.57;;
81648;SDS011;71057;51.436;6.768;2024-01-07T11:33:03;13.07;;;6.93;;
81648;SDS011;71057;51.436;6.768;2024-01-07T11:38:13;7.50;;;5.20;;
81648;SDS011;71057;51.436;6.768;2024-01-07T11:40:38;13.43;;;8.50;;
81648;SDS011;71057;51.436;6.768;2024-01-07T11:43:03;11.15;;;7.50;;
81648;SDS011;71057;51.436;6.768;2024-01-07T11:45:29;7.40;;;4.30;;
81648;SDS011;71057;51.436;6.768;2024-01-07T11:47:55;7.40;;;4.88;;
81648;SDS011;71057;51.436;6.768;2024-01-07T11:50:21;7.67;;;5.37;;
81648;SDS011;71057;51.436;6.768;2024-01-07T11:52:47;6.85;;;4.47;;
81648;SDS011;71057;51.436;6.768;2024-01-07T11:55:12;6.77;;;4.47;;
81648;SDS011;71057;51.436;6.768;2024-01-07T11:57:37;5.65;;;4.28;;
81648;SDS011;71057;51.436;6.768;2024-01-07T12:00:03;4.93;;;4.03;;
81648;SDS011;71057;51.436;6.768;2024-01-07T12:02:28;8.00;;;5.32;;
81648;SDS011;71057;51.436;6.768;2024-01-07T12:04:55;7.18;;;4.50;;
81648;SDS011;71057;51.436;6.768;2024-01-07T12:07:20;5.43;;;4.13;;
81648;SDS011;71057;51.436;6.768;2024-01-07T12:09:46;5.75;;;3.78;;
81648;SDS011;71057;51.436;6.768;2024-01-07T12:12:12;6.97;;;3.70;;
81648;SDS011;71057;51.436;6.768;2024-01-07T12:14:37;6.60;;;4.10;;
81648;SDS011;71057;51.436;6.768;2024-01-07T12:17:02;7.37;;;3.90;;
81648;SDS011;71057;51.436;6.768;2024-01-07T12:19:28;4.37;;;3.30;;
81648;SDS011;71057;51.436;6.768;2024-01-07T12:24:59;6.45;;;3.90;;
81648;SDS011;71057;51.436;6.768;2024-01-07T12:27:24;4.32;;;3.42;;
81648;SDS011;71057;51.436;6.768;2024-01-07T12:29:54;4.95;;;3.28;;
81648;SDS011;71057;51.436;6.768;2024-01-07T12:32:19;3.67;;;2.78;;
81648;SDS011;71057;51.436;6.768;2024-01-07T12:34:44;4.77;;;3.43;;
81648;SDS011;71057;51.436;6.768;2024-01-07T12:37:12;5.20;;;3.07;;
81648;SDS011;71057;51.436;6.768;2024-01-07T12:39:38;4.80;;;3.55;;
81648;SDS011;71057;51.436;6.768;2024-01-07T12:42:03;4.90;;;3.13;;
81648;SDS011;71057;51.436;6.768;2024-01-07T12:44:29;3.57;;;2.87;;
81648;SDS011;71057;51.436;6.768;2024-01-07T12:46:54;4.30;;;3.30;;
81648;SDS011;71057;51.436;6.768;2024-01-07T12:49:19;6.63;;;3.37;;
81648;SDS011;71057;51.436;6.768;2024-01-07T12:51:44;3.72;;;2.85;;
81648;SDS011;71057;51.436;6.768;2024-01-07T12:54:10;4.10;;;3.00;;
81648;SDS011;71057;51.436;6.768;2024-01-07T12:56:35;4.60;;;2.57;;
81648;SDS011;71057;51.436;6.768;2024-01-07T12:59:01;15.20;;;7.28;;
81648;SDS011;71057;51.436;6.768;2024-01-07T13:01:26;4.47;;;2.77;;
81648;SDS011;71057;51.436;6.768;2024-01-07T13:03:51;3.90;;;3.10;;
81648;SDS011;71057;51.436;6.768;2024-01-07T13:06:16;5.63;;;3.23;;
81648;SDS011;71057;51.436;6.768;2024-01-07T13:08:41;6.37;;;3.87;;
81648;SDS011;71057;51.436;6.768;2024-01-07T13:11:07;4.83;;;2.80;;
81648;SDS011;71057;51.436;6.768;2024-01-07T13:13:33;7.10;;;3.50;;
81648;SDS011;71057;51.436;6.768;2024-01-07T13:15:59;3.27;;;2.47;;
81648;SDS011;71057;51.436;6.768;2024-01-07T13:18:26;6.82;;;3.65;;
81648;SDS011;71057;51.436;6.768;2024-01-07T13:20:51;2.73;;;2.43;;
81648;SDS011;71057;51.436;6.768;2024-01-07T13:23:16;3.90;;;3.13;;
81648;SDS011;71057;51.436;6.768;2024-01-07T13:25:42;4.37;;;3.30;;
81648;SDS011;71057;51.436;6.768;2024-01-07T13:28:07;4.83;;;3.03;;
81648;SDS011;71057;51.436;6.768;2024-01-07T13:30:35;3.05;;;2.33;;
81648;SDS011;71057;51.436;6.768;2024-01-07T13:33:00;3.97;;;2.90;;
81648;SDS011;71057;51.436;6.768;2024-01-07T13:35:26;5.07;;;3.53;;
81648;SDS011;71057;51.436;6.768;2024-01-07T13:37:51;4.30;;;3.00;;
81648;SDS011;71057;51.436;6.768;2024-01-07T13:40:17;5.10;;;3.13;;
81648;SDS011;71057;51.436;6.768;2024-01-07T13:42:43;3.63;;;2.70;;
81648;SDS011;71057;51.436;6.768;2024-01-07T13:45:09;4.97;;;3.60;;
81648;SDS011;71057;51.436;6.768;2024-01-07T13:47:35;3.78;;;3.05;;
81648;SDS011;71057;51.436;6.768;2024-01-07T13:50:00;4.78;;;2.92;;
81648;SDS011;71057;51.436;6.768;2024-01-07T13:52:26;3.17;;;2.22;;
81648;SDS011;71057;51.436;6.768;2024-01-07T13:54:51;4.23;;;3.60;;
81648;SDS011;71057;51.436;6.768;2024-01-07T13:57:16;4.67;;;2.87;;
81648;SDS011;71057;51.436;6.768;2024-01-07T13:59:41;4.00;;;2.80;;
81648;SDS011;71057;51.436;6.768;2024-01-07T14:02:07;3.50;;;2.57;;
81648;SDS011;71057;51.436;6.768;2024-01-07T14:04:32;5.75;;;2.83;;
81648;SDS011;71057;51.436;6.768;2024-01-07T14:06:57;3.20;;;2.50;;
81648;SDS011;71057;51.436;6.768;2024-01-07T14:09:23;4.13;;;2.10;;
81648;SDS011;71057;51.436;6.768;2024-01-07T14:11:48;5.20;;;2.72;;
81648;SDS011;71057;51.436;6.768;2024-01-07T14:14:13;4.10;;;2.60;;
81648;SDS011;71057;51.436;6.768;2024-01-07T14:16:39;6.00;;;2.90;;
81648;SDS011;71057;51.436;6.768;2024-01-07T14:19:05;3.72;;;2.55;;
81648;SDS011;71057;51.436;6.768;2024-01-07T14:21:30;4.03;;;2.58;;
81648;SDS011;71057;51.436;6.768;2024-01-07T14:23:55;4.83;;;2.53;;
81648;SDS011;71057;51.436;6.768;2024-01-07T14:26:21;2.37;;;1.67;;
81648;SDS011;71057;51.436;6.768;2024-01-07T14:28:48;4.88;;;2.50;;
81648;SDS011;71057;51.436;6.768;2024-01-07T14:31:13;4.45;;;2.20;;
81648;SDS011;71057;51.436;6.768;2024-01-07T14:33:39;3.17;;;2.33;;
81648;SDS011;71057;51.436;6.768;2024-01-07T14:36:05;4.10;;;2.53;;
81648;SDS011;71057;51.436;6.768;2024-01-07T14:38:30;3.47;;;2.27;;
81648;SDS011;71057;51.436;6.768;2024-01-07T14:40:55;3.40;;;2.57;;
81648;SDS011;71057;51.436;6.768;2024-01-07T14:43:21;3.72;;;2.13;;